createdAt,value
2022-08-04T00:01:03.741Z,20
2022-08-04T00:02:20.869Z,19.9
2022-08-04T00:05:21.882Z,19.8
2022-08-04T00:06:52.404Z,19.8
2022-08-04T00:08:22.916Z,19.8
2022-08-04T00:09:53.432Z,19.8
2022-08-04T00:11:23.934Z,19.8
2022-08-04T00:12:54.444Z,19.8
2022-08-04T00:14:24.952Z,19.7
2022-08-04T00:15:55.479Z,19.7
2022-08-04T00:17:12.602Z,19.7
2022-08-04T00:18:29.279Z,19.7
2022-08-04T00:19:59.806Z,19.7
2022-08-04T00:21:30.320Z,19.7
2022-08-04T00:24:31.336Z,19.7
2022-08-04T00:26:01.841Z,19.7
2022-08-04T00:27:32.362Z,19.7
2022-08-04T00:29:02.867Z,19.6
2022-08-04T00:30:33.388Z,19.6
2022-08-04T00:33:21.023Z,19.6
2022-08-04T00:34:38.156Z,19.6
2022-08-04T00:36:08.673Z,19.6
2022-08-04T00:37:39.171Z,19.5
2022-08-04T00:39:09.688Z,19.5
2022-08-04T00:40:40.207Z,19.5
2022-08-04T00:42:10.707Z,19.5
2022-08-04T00:43:41.219Z,19.4
2022-08-04T00:45:11.737Z,19.4
2022-08-04T00:48:12.765Z,19.3
2022-08-04T00:49:29.893Z,19.4
2022-08-04T00:50:47.022Z,19.3
2022-08-04T00:52:17.525Z,19.3
2022-08-04T00:55:18.551Z,19.2
2022-08-04T00:56:49.054Z,19.2
2022-08-04T00:58:19.580Z,19.2
2022-08-04T00:59:50.079Z,19.2
2022-08-04T01:02:51.104Z,19.1
2022-08-04T01:04:21.629Z,19.1
2022-08-04T01:05:38.744Z,19.1
2022-08-04T01:06:55.436Z,19.1
2022-08-04T01:08:25.946Z,19.1
2022-08-04T01:09:56.472Z,19.1
2022-08-04T01:11:26.978Z,19.1
2022-08-04T01:12:57.490Z,19
2022-08-04T01:15:58.520Z,18.9
2022-08-04T01:17:29.034Z,19
2022-08-04T01:18:59.535Z,18.9
2022-08-04T01:20:30.050Z,18.9
2022-08-04T01:21:47.183Z,18.9
2022-08-04T01:23:04.302Z,18.9
2022-08-04T01:26:05.327Z,18.9
2022-08-04T01:27:35.833Z,18.8
2022-08-04T01:29:06.356Z,18.8
2022-08-04T01:32:07.373Z,18.9
2022-08-04T01:33:37.887Z,18.8
2022-08-04T01:35:08.406Z,18.8
2022-08-04T01:36:38.920Z,18.8
2022-08-04T01:37:56.039Z,18.8
2022-08-04T01:39:12.723Z,18.8
2022-08-04T01:40:43.233Z,18.8
2022-08-04T01:42:13.749Z,18.8
2022-08-04T01:43:44.258Z,18.8
2022-08-04T01:46:45.294Z,18.8
2022-08-04T01:48:15.798Z,18.8
2022-08-04T01:49:46.306Z,18.8
2022-08-04T01:51:16.834Z,18.8
2022-08-04T01:52:47.330Z,18.8
2022-08-04T01:54:04.474Z,18.8
2022-08-04T01:55:21.240Z,18.8
2022-08-04T01:56:59.863Z,18.8
2022-08-04T01:58:30.377Z,18.8
2022-08-04T02:00:00.875Z,18.8
2022-08-04T02:01:31.392Z,18.8
2022-08-04T02:03:01.900Z,18.8
2022-08-04T02:04:32.425Z,18.8
2022-08-04T02:06:02.931Z,18.8
2022-08-04T02:07:33.454Z,18.7
2022-08-04T02:09:03.948Z,18.7
2022-08-04T02:10:21.087Z,18.7
2022-08-04T02:11:37.943Z,18.8
2022-08-04T02:13:16.568Z,18.7
2022-08-04T02:14:47.074Z,18.8
2022-08-04T02:16:17.589Z,18.7
2022-08-04T02:17:48.091Z,18.7
2022-08-04T02:19:18.611Z,18.7
2022-08-04T02:20:49.119Z,18.7
2022-08-04T02:22:19.627Z,18.7
2022-08-04T02:25:20.654Z,18.7
2022-08-04T02:26:37.790Z,18.6
2022-08-04T02:27:54.476Z,18.7
2022-08-04T02:30:55.492Z,18.7
2022-08-04T02:32:26.003Z,18.7
2022-08-04T02:35:27.030Z,18.7
2022-08-04T02:36:57.540Z,18.7
2022-08-04T02:39:58.582Z,18.7
2022-08-04T02:41:29.086Z,18.7
2022-08-04T02:42:46.210Z,18.6
2022-08-04T02:45:33.843Z,18.7
2022-08-04T02:47:04.368Z,18.7
2022-08-04T02:48:34.871Z,18.7
2022-08-04T02:50:05.395Z,18.7
2022-08-04T02:53:06.413Z,18.6
2022-08-04T02:54:36.922Z,18.6
2022-08-04T02:56:07.444Z,18.6
2022-08-04T02:58:55.081Z,18.6
2022-08-04T03:01:50.555Z,18.6
2022-08-04T03:03:21.060Z,18.5
2022-08-04T03:06:22.090Z,18.5
2022-08-04T03:07:52.599Z,18.4
2022-08-04T03:12:24.141Z,18.4
2022-08-04T03:15:11.725Z,18.3
2022-08-04T03:16:28.533Z,18.4
2022-08-04T03:18:07.149Z,18.4
2022-08-04T03:21:08.170Z,18.3
2022-08-04T03:22:38.681Z,18.2
2022-08-04T03:25:39.710Z,18.2
2022-08-04T03:28:40.726Z,18.1
2022-08-04T03:30:11.252Z,18.1
2022-08-04T03:31:28.314Z,18.1
2022-08-04T03:34:15.900Z,18.1
2022-08-04T03:35:46.408Z,18.1
2022-08-04T03:38:47.436Z,18.1
2022-08-04T03:40:17.951Z,18
2022-08-04T03:44:49.487Z,18
2022-08-04T03:47:37.075Z,18
2022-08-04T03:48:53.714Z,18
2022-08-04T03:50:24.213Z,18
2022-08-04T03:51:54.732Z,18
2022-08-04T03:53:25.246Z,18
2022-08-04T03:54:55.764Z,18.1
2022-08-04T03:56:26.267Z,18.1
2022-08-04T03:57:56.784Z,18.3
2022-08-04T03:59:27.294Z,18.4
2022-08-04T04:00:57.796Z,18.6
2022-08-04T04:02:28.310Z,18.7
2022-08-04T04:03:45.398Z,18.8
2022-08-04T04:05:02.470Z,19
2022-08-04T04:06:32.985Z,19
2022-08-04T04:08:03.482Z,19.1
2022-08-04T04:09:34.003Z,19.2
2022-08-04T04:11:04.516Z,19.2
2022-08-04T04:12:35.013Z,19.3
2022-08-04T04:14:05.539Z,19.3
2022-08-04T04:15:36.047Z,19.3
2022-08-04T04:17:06.550Z,19.3
2022-08-04T04:18:37.062Z,19.3
2022-08-04T04:19:54.146Z,19.3
2022-08-04T04:21:10.944Z,19.3
2022-08-04T04:22:49.560Z,19.3
2022-08-04T04:24:20.071Z,19.3
2022-08-04T04:25:50.583Z,19.4
2022-08-04T04:27:21.098Z,19.5
2022-08-04T04:28:51.623Z,19.5
2022-08-04T04:30:22.131Z,19.5
2022-08-04T04:31:52.633Z,19.5
2022-08-04T04:33:23.155Z,19.5
2022-08-04T04:34:53.652Z,19.6
2022-08-04T04:36:10.741Z,19.6
2022-08-04T04:37:27.545Z,19.6
2022-08-04T04:39:06.164Z,19.7
2022-08-04T04:42:07.188Z,19.8
2022-08-04T04:43:37.684Z,19.9
2022-08-04T04:46:38.707Z,20
2022-08-04T04:48:09.229Z,20.2
2022-08-04T04:49:39.745Z,20.2
2022-08-04T04:51:10.254Z,20.3
2022-08-04T04:52:27.326Z,20.3
2022-08-04T04:53:44.400Z,20.4
2022-08-04T04:55:14.913Z,20.4
2022-08-04T04:56:45.420Z,20.5
2022-08-04T04:58:15.940Z,20.5
2022-08-04T05:01:16.953Z,20.6
2022-08-04T05:02:47.478Z,20.7
2022-08-04T05:04:17.989Z,20.7
2022-08-04T05:05:48.499Z,20.8
2022-08-04T05:07:18.999Z,20.9
2022-08-04T05:08:36.079Z,20.9
2022-08-04T05:09:52.891Z,21
2022-08-04T05:11:31.494Z,21
2022-08-04T05:13:02.008Z,21
2022-08-04T05:14:32.538Z,21.1
2022-08-04T05:16:03.041Z,21.1
2022-08-04T05:17:33.546Z,21.2
2022-08-04T05:22:05.091Z,21.3
2022-08-04T05:23:35.604Z,21.3
2022-08-04T05:24:52.679Z,21.4
2022-08-04T05:27:39.822Z,21.5
2022-08-04T05:29:10.341Z,21.5
2022-08-04T05:30:40.844Z,21.6
2022-08-04T05:32:11.360Z,21.6
2022-08-04T05:33:41.868Z,21.7
2022-08-04T05:35:12.389Z,21.9
2022-08-04T05:36:42.902Z,21.9
2022-08-04T05:39:43.925Z,22
2022-08-04T05:41:00.994Z,22.1
2022-08-04T05:42:18.056Z,22.2
2022-08-04T05:43:48.573Z,22.2
2022-08-04T05:45:19.090Z,22.3
2022-08-04T05:46:49.602Z,22.3
2022-08-04T05:49:50.623Z,22.5
2022-08-04T05:51:21.140Z,22.6
2022-08-04T05:52:51.657Z,22.6
2022-08-04T05:54:22.171Z,22.7
2022-08-04T05:55:52.680Z,22.8
2022-08-04T05:57:09.747Z,22.8
2022-08-04T05:58:26.829Z,22.8
2022-08-04T05:59:57.325Z,22.9
2022-08-04T06:01:27.848Z,23
2022-08-04T06:04:28.867Z,23.1
2022-08-04T06:05:59.371Z,23.2
2022-08-04T06:07:29.895Z,23.2
2022-08-04T06:09:00.400Z,23.3
2022-08-04T06:10:30.919Z,23.4
2022-08-04T06:12:01.424Z,23.5
2022-08-04T06:13:18.494Z,23.5
2022-08-04T06:14:35.573Z,23.6
2022-08-04T06:16:06.082Z,23.7
2022-08-04T06:17:36.602Z,23.8
2022-08-04T06:19:07.109Z,23.8
2022-08-04T06:23:06.798Z,23.9
2022-08-04T06:26:07.820Z,24.2
2022-08-04T06:29:42.530Z,24.5
2022-08-04T06:32:43.552Z,24.5
2022-08-04T06:35:44.581Z,24.7
2022-08-04T06:38:45.600Z,24.8
2022-08-04T06:41:46.621Z,25
2022-08-04T06:44:47.635Z,25.2
2022-08-04T06:47:48.655Z,25.4
2022-08-04T06:50:49.687Z,25.6
2022-08-04T06:53:50.721Z,25.8
2022-08-04T06:56:51.737Z,26
2022-08-04T06:58:34.807Z,26.2
2022-08-04T06:59:52.786Z,26.3
2022-08-04T07:02:53.796Z,26.3
2022-08-04T07:05:54.816Z,26.5
2022-08-04T07:11:56.858Z,26.9
2022-08-04T07:14:57.885Z,27.2
2022-08-04T07:20:59.936Z,28.2
2022-08-04T07:24:01.124Z,28.9
2022-08-04T07:28:45.040Z,30.5
2022-08-04T07:30:19.382Z,30.7
2022-08-04T07:33:20.417Z,31
2022-08-04T07:36:21.435Z,31.5
2022-08-04T07:39:22.464Z,31.9
2022-08-04T07:45:24.492Z,32.3
2022-08-04T07:48:25.526Z,32.1
2022-08-04T07:51:26.554Z,31.8
2022-08-04T07:54:27.582Z,31.7
2022-08-04T07:57:28.587Z,31.7
2022-08-04T07:58:55.298Z,31.6
2022-08-04T08:00:29.627Z,31.5
2022-08-04T08:03:30.651Z,31.5
2022-08-04T08:06:31.673Z,31.5
2022-08-04T08:09:32.686Z,31.5
2022-08-04T08:12:33.713Z,31.6
2022-08-04T08:15:34.743Z,31.7
2022-08-04T08:18:35.760Z,31.8
2022-08-04T08:24:37.804Z,31.8
2022-08-04T08:27:38.830Z,31.9
2022-08-04T08:29:05.558Z,31.9
2022-08-04T08:30:39.850Z,31.9
2022-08-04T08:33:40.883Z,31.9
2022-08-04T08:36:41.908Z,31.8
2022-08-04T08:39:42.917Z,31.9
2022-08-04T08:42:43.944Z,32
2022-08-04T08:45:44.982Z,32
2022-08-04T08:48:46.003Z,32.1
2022-08-04T08:51:47.030Z,32.1
2022-08-04T08:54:48.044Z,32.1
2022-08-04T08:59:15.810Z,32
2022-08-04T09:00:50.097Z,32.1
2022-08-04T09:09:53.162Z,32.3
2022-08-04T09:12:54.185Z,32.4
2022-08-04T09:18:56.226Z,32.7
2022-08-04T09:21:57.269Z,32.6
2022-08-04T09:27:59.298Z,32.8
2022-08-04T09:29:26.048Z,33
2022-08-04T09:31:00.340Z,33.1
2022-08-04T09:34:01.356Z,33.2
2022-08-04T09:37:02.381Z,33.3
2022-08-04T09:43:04.415Z,33.4
2022-08-04T09:46:05.449Z,33.5
2022-08-04T09:49:06.476Z,33.5
2022-08-04T09:52:07.506Z,33.6
2022-08-04T09:55:08.522Z,33.7
2022-08-04T09:58:09.545Z,33.8
2022-08-04T09:59:36.311Z,33.8
2022-08-04T10:01:10.568Z,33.8
2022-08-04T10:04:11.584Z,33.9
2022-08-04T10:07:12.608Z,33.9
2022-08-04T10:10:13.644Z,34
2022-08-04T10:13:14.655Z,34.1
2022-08-04T10:16:15.688Z,34.1
2022-08-04T10:19:16.719Z,34.1
2022-08-04T10:22:17.735Z,34.2
2022-08-04T10:25:18.751Z,34.3
2022-08-04T10:28:19.783Z,34.4
2022-08-04T10:29:46.560Z,34.4
2022-08-04T10:31:20.812Z,34.4
2022-08-04T10:37:22.860Z,34.5
2022-08-04T10:40:23.886Z,34.6
2022-08-04T10:43:24.897Z,34.6
2022-08-04T10:46:25.927Z,34.7
2022-08-04T10:49:26.939Z,34.7
2022-08-04T10:52:27.969Z,34.7
2022-08-04T10:55:29.004Z,34.7
2022-08-04T10:58:30.028Z,34.7
2022-08-04T10:59:56.833Z,34.8
2022-08-04T11:01:31.055Z,34.9
2022-08-04T11:04:32.079Z,35
2022-08-04T11:07:33.099Z,35.2
2022-08-04T11:10:34.117Z,35.1
2022-08-04T11:13:35.133Z,35.1
2022-08-04T11:16:36.157Z,35
2022-08-04T11:19:37.193Z,35.1
2022-08-04T11:22:38.215Z,35.1
2022-08-04T11:25:39.228Z,35.1
2022-08-04T11:28:40.250Z,35.2
2022-08-04T11:30:07.076Z,35.2
2022-08-04T11:31:41.280Z,35.2
2022-08-04T11:34:42.313Z,35.2
2022-08-04T11:37:43.322Z,35.2
2022-08-04T11:43:45.381Z,35.5
2022-08-04T11:46:46.395Z,35.6
2022-08-04T11:49:47.422Z,35.6
2022-08-04T11:52:48.443Z,35.6
2022-08-04T11:55:49.465Z,35.6
2022-08-04T11:58:50.496Z,35.7
2022-08-04T12:00:17.338Z,35.7
2022-08-04T12:01:51.522Z,35.7
2022-08-04T12:04:52.551Z,35.8
2022-08-04T12:07:53.568Z,35.6
2022-08-04T12:10:54.592Z,35.6
2022-08-04T12:19:57.667Z,36
2022-08-04T12:22:58.680Z,35.9
2022-08-04T12:25:59.712Z,35.8
2022-08-04T12:29:00.730Z,35.9
2022-08-04T12:30:27.597Z,35.9
2022-08-04T12:32:01.761Z,35.9
2022-08-04T12:35:02.771Z,36
2022-08-04T12:38:03.810Z,36.2
2022-08-04T12:41:04.825Z,36.3
2022-08-04T12:47:06.868Z,36.5
2022-08-04T12:50:07.906Z,36.6
2022-08-04T12:53:08.930Z,36.5
2022-08-04T12:56:09.953Z,36.5
2022-08-04T12:59:10.966Z,36.4
2022-08-04T13:00:37.841Z,36.3
2022-08-04T13:02:12.007Z,36.4
2022-08-04T13:05:13.024Z,36.4
2022-08-04T13:08:14.053Z,36.5
2022-08-04T13:11:15.067Z,36.5
2022-08-04T13:14:16.102Z,36.5
2022-08-04T13:17:17.108Z,36.4
2022-08-04T13:20:18.133Z,36.4
2022-08-04T13:23:19.167Z,36.3
2022-08-04T13:26:20.196Z,36.5
2022-08-04T13:29:21.210Z,36.6
2022-08-04T13:30:48.100Z,36.7
2022-08-04T13:32:22.246Z,36.7
2022-08-04T13:35:23.257Z,36.8
2022-08-04T13:38:24.276Z,36.8
2022-08-04T13:41:25.302Z,36.7
2022-08-04T13:44:26.345Z,36.6
2022-08-04T13:47:27.353Z,36.3
2022-08-04T13:50:28.376Z,36.2
2022-08-04T13:53:29.413Z,36.1
2022-08-04T13:56:30.437Z,35.9
2022-08-04T13:59:31.452Z,35.8
2022-08-04T14:00:58.367Z,35.8
2022-08-04T14:02:32.479Z,35.9
2022-08-04T14:05:33.512Z,35.9
2022-08-04T14:08:34.538Z,36.1
2022-08-04T14:11:35.556Z,36.3
2022-08-04T14:14:36.573Z,36.5
2022-08-04T14:17:37.610Z,36.6
2022-08-04T14:20:38.623Z,36.6
2022-08-04T14:23:39.645Z,36.7
2022-08-04T14:26:40.677Z,36.8
2022-08-04T14:29:41.700Z,36.9
2022-08-04T14:31:08.623Z,36.8
2022-08-04T14:32:42.713Z,36.8
2022-08-04T14:35:43.736Z,36.6
2022-08-04T14:38:44.769Z,36.4
2022-08-04T14:41:45.797Z,36.3
2022-08-04T14:44:46.809Z,36.2
2022-08-04T14:47:47.841Z,36
2022-08-04T14:50:48.874Z,35.9
2022-08-04T14:53:49.899Z,35.9
2022-08-04T14:56:50.918Z,35.9
2022-08-04T14:59:51.927Z,35.9
2022-08-04T15:01:18.886Z,35.9
2022-08-04T15:02:52.965Z,36
2022-08-04T15:05:53.982Z,36
2022-08-04T15:11:56.038Z,36.1
2022-08-04T15:14:57.062Z,36.1
2022-08-04T15:17:58.071Z,36.1
2022-08-04T15:20:59.099Z,35.9
2022-08-04T15:24:00.126Z,35.8
2022-08-04T15:27:01.160Z,35.8
2022-08-04T15:30:02.166Z,35.7
2022-08-04T15:31:29.151Z,35.7
2022-08-04T15:33:03.201Z,35.7
2022-08-04T15:36:04.215Z,35.6
2022-08-04T15:39:05.253Z,35.7
2022-08-04T15:42:06.266Z,35.6
2022-08-04T15:45:07.301Z,35.6
2022-08-04T15:48:08.314Z,35.6
2022-08-04T15:51:09.349Z,35.6
2022-08-04T15:54:10.363Z,35.6
2022-08-04T15:57:11.384Z,35.5
2022-08-04T16:00:12.422Z,35.4
2022-08-04T16:01:39.403Z,35.3
2022-08-04T16:03:13.437Z,35.3
2022-08-04T16:06:14.455Z,35.3
2022-08-04T16:09:15.475Z,35.2
2022-08-04T16:12:16.515Z,35.2
2022-08-04T16:15:17.533Z,35.1
2022-08-04T16:18:18.554Z,35.2
2022-08-04T16:21:19.588Z,35.2
2022-08-04T16:24:20.601Z,35.2
2022-08-04T16:27:21.633Z,35.1
2022-08-04T16:31:49.643Z,35
2022-08-04T16:33:23.679Z,35
2022-08-04T16:36:24.696Z,35
2022-08-04T16:39:25.720Z,34.9
2022-08-04T16:42:26.759Z,34.9
2022-08-04T16:51:29.811Z,34.7
2022-08-04T16:54:30.844Z,34.6
2022-08-04T16:57:31.867Z,34.6
2022-08-04T17:00:32.883Z,34.5
2022-08-04T17:01:59.913Z,34.4
2022-08-04T17:03:34.089Z,34.4
2022-08-04T17:06:51.316Z,34.4
2022-08-04T17:09:52.342Z,34.4
2022-08-04T17:12:53.362Z,34.3
2022-08-04T17:15:54.387Z,34.3
2022-08-04T17:18:55.418Z,34.4
2022-08-04T17:21:56.436Z,34.3
2022-08-04T17:24:57.467Z,34.3
2022-08-04T17:27:58.490Z,34.2
2022-08-04T17:30:59.512Z,34.1
2022-08-04T17:32:17.487Z,34
2022-08-04T17:34:00.537Z,34
2022-08-04T17:37:01.547Z,33.9
2022-08-04T17:40:02.574Z,33.9
2022-08-04T17:43:03.603Z,33.7
2022-08-04T17:46:04.632Z,33.6
2022-08-04T17:49:05.660Z,33.4
2022-08-04T17:52:06.676Z,33.3
2022-08-04T17:55:07.700Z,33.2
2022-08-04T17:58:08.719Z,33
2022-08-04T18:01:09.734Z,32.9
2022-08-04T18:02:27.747Z,32.7
2022-08-04T18:04:10.777Z,32.7
2022-08-04T18:07:11.802Z,32.6
2022-08-04T18:10:12.811Z,32.5
2022-08-04T18:13:13.849Z,32.4
2022-08-04T18:16:14.866Z,32.2
2022-08-04T18:22:16.904Z,31.9
2022-08-04T18:25:17.925Z,31.8
2022-08-04T18:28:18.945Z,31.7
2022-08-04T18:31:19.979Z,31.5
2022-08-04T18:32:37.984Z,31.3
2022-08-04T18:34:21.011Z,31.3
2022-08-04T18:37:22.023Z,31.2
2022-08-04T18:40:23.045Z,30.9
2022-08-04T18:43:24.084Z,30.6
2022-08-04T18:46:25.092Z,30.2
2022-08-04T18:49:26.129Z,30
2022-08-04T18:52:27.153Z,29.8
2022-08-04T18:55:28.178Z,29.6
2022-08-04T18:58:29.196Z,29.5
2022-08-04T19:01:30.223Z,29.5
2022-08-04T19:02:48.240Z,29.4
2022-08-04T19:04:31.238Z,29.4
2022-08-04T19:07:32.251Z,29.3
2022-08-04T19:10:33.288Z,29.2
2022-08-04T19:13:34.315Z,29.1
2022-08-04T19:16:35.339Z,29
2022-08-04T19:19:36.362Z,28.9
2022-08-04T19:22:37.381Z,28.9
2022-08-04T19:25:38.410Z,28.8
2022-08-04T19:28:39.420Z,28.6
2022-08-04T19:31:40.444Z,28.5
2022-08-04T19:32:58.503Z,28.4
2022-08-04T19:34:41.482Z,28.4
2022-08-04T19:37:42.492Z,28.4
2022-08-04T19:40:43.515Z,28.3
2022-08-04T19:43:44.538Z,28.3
2022-08-04T19:46:45.565Z,28.3
2022-08-04T19:52:47.605Z,28.4
2022-08-04T19:55:48.626Z,28.5
2022-08-04T19:58:49.656Z,28.5
2022-08-04T20:01:50.679Z,28.4
2022-08-04T20:03:08.734Z,28.5
2022-08-04T20:04:51.706Z,28.5
2022-08-04T20:07:52.725Z,28.5
2022-08-04T20:10:53.759Z,28.5
2022-08-04T20:13:54.781Z,28.5
2022-08-04T20:16:55.803Z,28.5
2022-08-04T20:19:56.808Z,28.4
2022-08-04T20:22:57.835Z,28.4
2022-08-04T20:25:58.869Z,28.3
2022-08-04T20:28:59.887Z,28.2
2022-08-04T20:32:00.902Z,28.2
2022-08-04T20:33:18.993Z,28.3
2022-08-04T20:35:01.939Z,28.3
2022-08-04T20:38:02.958Z,28.3
2022-08-04T20:41:03.983Z,28.3
2022-08-04T20:44:05.003Z,28.4
2022-08-04T20:47:06.029Z,28.4
2022-08-04T20:50:07.052Z,28.5
2022-08-04T20:53:08.063Z,28.5
2022-08-04T20:56:09.103Z,28.5
2022-08-04T20:59:10.116Z,28.5
2022-08-04T21:02:11.132Z,28.5
2022-08-04T21:03:29.236Z,28.4
2022-08-04T21:05:12.168Z,28.4
2022-08-04T21:08:13.192Z,28.4
2022-08-04T21:11:14.205Z,28.4
2022-08-04T21:14:15.243Z,28.4
2022-08-04T21:17:16.246Z,28.3
2022-08-04T21:20:17.275Z,28.3
2022-08-04T21:23:18.295Z,28.2
2022-08-04T21:26:19.323Z,28.2
2022-08-04T21:29:20.352Z,28.2
2022-08-04T21:32:21.367Z,28.1
2022-08-04T21:33:39.497Z,28.1
2022-08-04T21:35:22.401Z,28.1
2022-08-04T21:38:23.415Z,28.1
2022-08-04T21:41:24.431Z,28
2022-08-04T21:44:25.471Z,27.9
2022-08-04T21:47:26.496Z,27.9
2022-08-04T21:50:27.500Z,27.8
2022-08-04T21:53:28.521Z,27.8
2022-08-04T21:56:29.547Z,27.8
2022-08-04T21:59:30.569Z,27.7
2022-08-04T22:02:31.594Z,27.7
2022-08-04T22:03:49.733Z,27.6
2022-08-04T22:05:32.630Z,27.6
2022-08-04T22:08:33.650Z,27.6
2022-08-04T22:11:34.669Z,27.5
2022-08-04T22:14:35.685Z,27.5
2022-08-04T22:17:36.716Z,27.4
2022-08-04T22:20:37.738Z,27.4
2022-08-04T22:23:38.760Z,27.4
2022-08-04T22:26:39.793Z,27.3
2022-08-04T22:29:40.797Z,27.3
2022-08-04T22:32:41.821Z,27.2
2022-08-04T22:33:59.982Z,27.2
2022-08-04T22:35:42.862Z,27.2
2022-08-04T22:38:43.869Z,27.2
2022-08-04T22:41:44.901Z,27.1
2022-08-04T22:44:45.924Z,27.1
2022-08-04T22:47:46.953Z,27
2022-08-04T22:50:47.964Z,27
2022-08-04T22:53:48.985Z,27
2022-08-04T22:56:50.017Z,26.9
2022-08-04T22:59:51.035Z,26.9
2022-08-04T23:02:52.052Z,26.9
2022-08-04T23:04:10.233Z,26.8
2022-08-04T23:05:53.090Z,26.8
2022-08-04T23:08:54.102Z,26.8
2022-08-04T23:11:55.119Z,26.7
2022-08-04T23:14:56.149Z,26.7
2022-08-04T23:17:57.183Z,26.7
2022-08-04T23:20:58.200Z,26.5
2022-08-04T23:27:00.245Z,26.1
2022-08-04T23:30:01.263Z,25.9
2022-08-04T23:34:20.479Z,25.8
2022-08-04T23:39:04.329Z,25.6
2022-08-04T23:42:05.355Z,25.4
2022-08-04T23:48:07.400Z,25.2
2022-08-04T23:51:08.430Z,24.9
2022-08-04T23:54:09.450Z,24.8
2022-08-04T23:57:10.471Z,24.7
